createdAt,value
2019-05-02T00:00:20.012Z,65.4
2019-05-02T00:05:18.239Z,65.1
2019-05-02T00:10:19.850Z,64.7
2019-05-02T00:15:14.833Z,64.8
2019-05-02T00:20:13.611Z,64.8
2019-05-02T00:25:15.884Z,64.7
2019-05-02T00:30:10.410Z,64.4
2019-05-02T00:35:08.845Z,64.3
2019-05-02T00:40:07.361Z,64.2
2019-05-02T00:45:05.775Z,64.6
2019-05-02T00:50:06.130Z,64.3
2019-05-02T00:55:02.066Z,64.6
2019-05-02T01:00:00.193Z,65.2
2019-05-02T01:04:59.221Z,64.7
2019-05-02T01:09:57.017Z,64.7
2019-05-02T01:14:55.178Z,64.5
2019-05-02T01:19:53.400Z,64.5
2019-05-02T01:24:51.746Z,64.3
2019-05-02T01:29:50.010Z,64.8
2019-05-02T01:34:48.866Z,64.5
2019-05-02T01:39:46.731Z,64.8
2019-05-02T01:44:45.131Z,64.4
2019-05-02T01:49:43.439Z,64.7
2019-05-02T01:54:45.638Z,64.6
2019-05-02T01:59:40.290Z,65.1
2019-05-02T02:04:38.996Z,64.6
2019-05-02T02:09:38.697Z,64.9
2019-05-02T02:14:35.606Z,64.7
2019-05-02T02:19:34.563Z,64.3
2019-05-02T02:24:32.368Z,64.3
2019-05-02T02:29:30.676Z,64.2
2019-05-02T02:34:32.261Z,64.3
2019-05-02T02:39:27.936Z,64.3
2019-05-02T02:44:26.402Z,64
2019-05-02T02:49:24.908Z,63.8
2019-05-02T02:54:23.465Z,63.9
2019-05-02T02:59:26.088Z,63.9
2019-05-02T03:04:20.597Z,63.7
2019-05-02T03:09:20.016Z,63.8
2019-05-02T03:14:17.686Z,63.6
2019-05-02T03:19:20.996Z,63.8
2019-05-02T03:24:14.664Z,63.9
2019-05-02T03:29:13.501Z,63.7
2019-05-02T03:34:12.038Z,63.7
2019-05-02T03:39:14.544Z,63.4
2019-05-02T03:44:11.503Z,63.1
2019-05-02T03:49:09.646Z,63
2019-05-02T03:54:09.970Z,63
2019-05-02T03:59:05.399Z,63
2019-05-02T04:04:04.255Z,62.8
2019-05-02T04:09:03.150Z,62.8
2019-05-02T04:14:01.436Z,62.9
2019-05-02T04:18:59.981Z,62.9
2019-05-02T04:24:06.486Z,62.7
2019-05-02T04:28:56.810Z,62.7
2019-05-02T04:33:55.273Z,62.6
2019-05-02T04:38:54.035Z,62.8
2019-05-02T04:43:57.151Z,62.5
2019-05-02T04:48:52.795Z,62.3
2019-05-02T04:53:49.936Z,62.2
2019-05-02T04:58:49.309Z,61.6
2019-05-02T05:03:49.014Z,61.6
2019-05-02T05:08:48.060Z,61.4
2019-05-02T05:13:44.026Z,61.3
2019-05-02T05:18:43.861Z,61
2019-05-02T05:23:42.067Z,61.3
2019-05-02T05:28:44.270Z,61.2
2019-05-02T05:33:39.867Z,61.1
2019-05-02T05:38:40.616Z,61
2019-05-02T05:43:37.948Z,60.4
2019-05-02T05:48:37.053Z,60.3
2019-05-02T05:53:33.606Z,60
2019-05-02T05:58:32.456Z,60
2019-05-02T06:03:33.899Z,59.4
2019-05-02T06:08:29.548Z,58.8
2019-05-02T06:13:28.224Z,57.6
2019-05-02T06:18:28.334Z,57.5
2019-05-02T06:23:25.914Z,56.8
2019-05-02T06:28:24.871Z,55.7
2019-05-02T06:33:25.794Z,56.2
2019-05-02T06:38:22.910Z,56.3
2019-05-02T06:43:21.546Z,54.3
2019-05-02T06:48:20.608Z,54.4
2019-05-02T06:53:19.119Z,53.9
2019-05-02T06:58:18.296Z,52.6
2019-05-02T07:03:16.741Z,52.8
2019-05-02T07:08:15.424Z,52.2
2019-05-02T07:13:14.966Z,50
2019-05-02T07:18:12.647Z,50.5
2019-05-02T07:23:16.014Z,50.3
2019-05-02T07:28:10.867Z,50
2019-05-02T07:33:09.228Z,49.6
2019-05-02T07:38:08.707Z,48.5
2019-05-02T07:43:07.489Z,48.4
2019-05-02T07:48:06.260Z,47.3
2019-05-02T07:53:09.168Z,46.6
2019-05-02T07:58:06.814Z,47
2019-05-02T08:03:05.091Z,46.6
2019-05-02T08:08:02.656Z,46.4
2019-05-02T08:13:01.368Z,45.8
2019-05-02T08:18:00.024Z,44.9
2019-05-02T08:22:58.646Z,44.7
2019-05-02T08:27:58.144Z,42.6
2019-05-02T08:32:57.404Z,42.6
2019-05-02T08:37:56.052Z,40.9
2019-05-02T08:42:54.240Z,42.2
2019-05-02T08:47:53.140Z,41.2
2019-05-02T08:52:51.338Z,41
2019-05-02T08:57:51.021Z,40
2019-05-02T09:02:47.941Z,40.7
2019-05-02T09:07:47.035Z,40.8
2019-05-02T09:12:46.089Z,38.7
2019-05-02T09:17:51.503Z,39.1
2019-05-02T09:22:46.451Z,38.4
2019-05-02T09:27:42.729Z,39.6
2019-05-02T09:32:42.160Z,39
2019-05-02T09:37:41.855Z,38.9
2019-05-02T09:42:39.844Z,38.4
2019-05-02T09:47:53.737Z,37.3
2019-05-02T09:52:39.305Z,37.2
2019-05-02T09:57:37.166Z,36.2
2019-05-02T10:02:35.730Z,34.9
2019-05-02T10:07:34.570Z,33.5
2019-05-02T10:12:33.477Z,33.6
2019-05-02T10:17:32.327Z,33.2
2019-05-02T10:22:38.836Z,32.5
2019-05-02T10:27:32.088Z,33
2019-05-02T10:32:29.278Z,31.6
2019-05-02T10:37:30.484Z,31.2
2019-05-02T10:42:27.134Z,32.5
2019-05-02T10:47:26.280Z,32.3
2019-05-02T10:52:29.410Z,32.2
2019-05-02T10:57:23.861Z,32.3
2019-05-02T11:02:23.134Z,32.8
2019-05-02T11:07:26.147Z,33.8
2019-05-02T11:12:25.478Z,33.2
2019-05-02T11:17:22.555Z,33
2019-05-02T11:22:19.281Z,32.7
2019-05-02T11:27:18.226Z,31.1
2019-05-02T11:32:17.300Z,31.4
2019-05-02T11:37:16.187Z,30.4
2019-05-02T11:42:17.589Z,32.2
2019-05-02T11:47:17.171Z,33.8
2019-05-02T11:52:12.888Z,33.4
2019-05-02T11:57:11.913Z,33.7
2019-05-02T12:02:17.071Z,29.7
2019-05-02T12:07:12.676Z,26.6
2019-05-02T12:12:09.615Z,28.1
2019-05-02T12:17:09.278Z,28.2
2019-05-02T12:22:12.666Z,28.5
2019-05-02T12:27:07.232Z,31.1
2019-05-02T12:32:06.358Z,31.5
2019-05-02T12:37:05.968Z,31.3
2019-05-02T12:42:05.156Z,30.2
2019-05-02T12:47:04.036Z,29.3
2019-05-02T12:52:03.596Z,28.2
2019-05-02T12:57:02.461Z,27.1
2019-05-02T13:02:02.491Z,27.4
2019-05-02T13:07:02.138Z,28.5
2019-05-02T13:11:59.551Z,29.1
2019-05-02T13:17:05.438Z,30.3
2019-05-02T13:21:59.542Z,31.2
2019-05-02T13:26:59.262Z,31.1
2019-05-02T13:31:55.406Z,31.1
2019-05-02T13:36:54.429Z,29.8
2019-05-02T13:41:53.654Z,28.9
2019-05-02T13:46:53.546Z,27.9
2019-05-02T13:51:52.353Z,26.8
2019-05-02T13:56:52.660Z,26.9
2019-05-02T14:01:52.157Z,27.6
2019-05-02T14:06:52.590Z,28.5
2019-05-02T14:11:49.564Z,29.5
2019-05-02T14:16:47.999Z,29.9
2019-05-02T14:21:47.026Z,29.7
2019-05-02T14:26:46.332Z,30.8
2019-05-02T14:31:45.477Z,31.2
2019-05-02T14:36:44.372Z,30.5
2019-05-02T14:41:44.598Z,30.6
2019-05-02T14:46:42.966Z,30.7
2019-05-02T14:51:42.840Z,30.1
2019-05-02T14:56:43.266Z,30.3
2019-05-02T15:01:42.065Z,30.3
2019-05-02T15:06:43.381Z,30.4
2019-05-02T15:11:39.493Z,30.1
2019-05-02T15:16:41.955Z,30.4
2019-05-02T15:21:37.608Z,31.5
2019-05-02T15:26:37.502Z,30.8
2019-05-02T15:31:36.863Z,31
2019-05-02T15:36:36.978Z,30.9
2019-05-02T15:41:34.799Z,31
2019-05-02T15:46:34.065Z,31
2019-05-02T15:51:33.075Z,31.5
2019-05-02T15:56:35.331Z,30.8
2019-05-02T16:01:36.544Z,31.5
2019-05-02T16:06:33.847Z,31.8
2019-05-02T16:11:32.178Z,31.6
2019-05-02T16:16:31.999Z,31.3
2019-05-02T16:21:32.566Z,31.4
2019-05-02T16:26:30.405Z,31.3
2019-05-02T16:31:31.184Z,31.7
2019-05-02T16:36:33.652Z,32.2
2019-05-02T16:41:28.727Z,32.8
2019-05-02T16:46:28.147Z,33.6
2019-05-02T16:51:32.141Z,34.4
2019-05-02T16:56:27.406Z,35.1
2019-05-02T17:01:28.449Z,36
2019-05-02T17:06:26.674Z,36.3
2019-05-02T17:11:27.730Z,37.7
2019-05-02T17:16:26.030Z,38.4
2019-05-02T17:21:26.756Z,38.7
2019-05-02T17:26:25.860Z,39.2
2019-05-02T17:31:25.628Z,39.3
2019-05-02T17:36:28.367Z,39.1
2019-05-02T17:41:25.044Z,39
2019-05-02T17:46:25.905Z,38.7
2019-05-02T17:51:28.244Z,39.1
2019-05-02T17:56:25.057Z,39.4
2019-05-02T18:01:26.310Z,39.6
2019-05-02T18:06:32.231Z,40.2
2019-05-02T18:11:29.538Z,40.4
2019-05-02T18:16:25.282Z,40.9
2019-05-02T18:21:28.620Z,40.9
2019-05-02T18:26:26.092Z,41.2
2019-05-02T18:31:26.603Z,41.1
2019-05-02T18:36:27.096Z,41.5
2019-05-02T18:41:27.646Z,41.7
2019-05-02T18:46:28.705Z,41.7
